Terminal Aerodrome Forecast
Issued by NWS

Home | Current Version | Previous Version | Text Only | Print | Product List | Glossary On
Versions: 1 2 3 4 5 6 7 8 9 10 11 12 13
119
FTUS45 KRIW 250523
TAFWRL
TAF
KWRL 250523Z 2506/2606 16010KT P6SM BKN200
     FM251600 15007KT P6SM SCT050 BKN080
     FM252000 34009KT P6SM VCSH SCT040 BKN060
     FM260000 33010KT 6SM -SHRA BKN030=

USA.gov is the U.S. government's official web portal to all federal, state and local government web resources and services.